createdAt,value
2017-09-23T00:00:55.503Z,10.15
2017-09-23T00:02:05.132Z,10.15
2017-09-23T00:03:15.410Z,10.18
2017-09-23T00:04:25.364Z,10.2
2017-09-23T00:05:35.637Z,10.13
2017-09-23T00:06:45.912Z,10.18
2017-09-23T00:07:55.863Z,10.15
2017-09-23T00:09:06.149Z,10.15
2017-09-23T00:10:16.425Z,10.18
2017-09-23T00:11:26.702Z,10.13
2017-09-23T00:12:36.974Z,10.12
2017-09-23T00:13:47.251Z,10.12
2017-09-23T00:14:57.530Z,10.15
2017-09-23T00:16:07.487Z,10.15
2017-09-23T00:17:17.437Z,10.17
2017-09-23T00:18:27.719Z,10.15
2017-09-23T00:19:37.038Z,10.15
2017-09-23T00:20:46.987Z,10.15
2017-09-23T00:21:57.266Z,10.15
2017-09-23T00:23:07.537Z,9.97
2017-09-23T00:24:17.492Z,10.05
2017-09-23T00:25:27.444Z,10.09
2017-09-23T00:26:37.424Z,10.09
2017-09-23T00:27:47.383Z,10.02
2017-09-23T00:28:57.651Z,10.05
2017-09-23T00:30:07.605Z,10.05
2017-09-23T00:31:17.556Z,10.02
2017-09-23T00:32:27.508Z,10.05
2017-09-23T00:33:37.795Z,10.02
2017-09-23T00:34:47.746Z,10.05
2017-09-23T00:35:58.023Z,10.02
2017-09-23T00:37:07.658Z,10.05
2017-09-23T00:38:17.930Z,10.02
2017-09-23T00:39:27.558Z,10.09
2017-09-23T00:40:37.834Z,9.95
2017-09-23T00:41:48.114Z,9.95
2017-09-23T00:42:58.067Z,10.06
2017-09-23T00:44:08.338Z,9.94
2017-09-23T00:45:18.292Z,9.97
2017-09-23T00:46:28.567Z,10.02
2017-09-23T00:47:38.848Z,10
2017-09-23T00:48:49.119Z,10.05
2017-09-23T00:49:59.390Z,10.02
2017-09-23T00:51:09.664Z,10.06
2017-09-23T00:52:19.949Z,9.97
2017-09-23T00:53:30.225Z,10.06
2017-09-23T00:54:40.501Z,10.09
2017-09-23T00:55:50.773Z,10.1
2017-09-23T00:57:00.727Z,10.17
2017-09-23T00:58:10.354Z,10.18
2017-09-23T00:59:20.305Z,10.12
2017-09-23T01:00:30.258Z,10.2
2017-09-23T01:01:40.530Z,10.18
2017-09-23T01:02:50.797Z,10.18
2017-09-23T01:04:01.109Z,10.15
2017-09-23T01:05:10.742Z,10.1
2017-09-23T01:06:20.370Z,10.17
2017-09-23T01:07:30.327Z,10.1
2017-09-23T01:08:40.282Z,10.06
2017-09-23T01:09:50.563Z,10.15
2017-09-23T01:11:00.839Z,10.05
2017-09-23T01:12:10.798Z,10.07
2017-09-23T01:13:20.755Z,10.06
2017-09-23T01:14:31.030Z,10.1
2017-09-23T01:15:41.297Z,10.05
2017-09-23T01:16:50.930Z,10.09
2017-09-23T01:18:00.887Z,10.05
2017-09-23T01:19:10.849Z,10.07
2017-09-23T01:20:20.800Z,10.06
2017-09-23T01:21:30.756Z,9.92
2017-09-23T01:22:40.706Z,10.02
2017-09-23T01:23:50.979Z,10.02
2017-09-23T01:25:01.249Z,10.02
2017-09-23T01:26:10.888Z,10.07
2017-09-23T01:27:20.843Z,10.06
2017-09-23T01:28:31.119Z,10.02
2017-09-23T01:29:41.073Z,9.97
2017-09-23T01:30:51.041Z,10.02
2017-09-23T01:32:00.999Z,10.05
2017-09-23T01:33:11.275Z,9.99
2017-09-23T01:34:20.902Z,9.99
2017-09-23T01:35:31.181Z,9.97
2017-09-23T01:36:40.818Z,9.92
2017-09-23T01:37:50.771Z,10
2017-09-23T01:39:01.042Z,9.91
2017-09-23T01:40:11.323Z,10.02
2017-09-23T01:41:21.287Z,10.06
2017-09-23T01:42:30.920Z,10.05
2017-09-23T01:43:41.213Z,9.94
2017-09-23T01:44:51.484Z,9.92
2017-09-23T01:46:01.758Z,10
2017-09-23T01:47:12.039Z,9.99
2017-09-23T01:48:22.313Z,9.97
2017-09-23T01:49:32.262Z,9.97
2017-09-23T01:50:42.543Z,9.97
2017-09-23T01:51:52.494Z,9.92
2017-09-23T01:53:01.809Z,9.92
2017-09-23T01:54:12.088Z,9.94
2017-09-23T01:55:22.360Z,9.99
2017-09-23T01:56:32.635Z,9.92
2017-09-23T01:57:42.586Z,9.95
2017-09-23T01:58:52.879Z,9.92
2017-09-23T02:00:03.148Z,9.95
2017-09-23T02:01:12.457Z,9.97
2017-09-23T02:02:22.407Z,9.95
2017-09-23T02:03:32.688Z,9.91
2017-09-23T02:04:42.970Z,9.99
2017-09-23T02:05:53.246Z,9.94
2017-09-23T02:07:03.514Z,9.94
2017-09-23T02:08:13.793Z,9.95
2017-09-23T02:09:23.745Z,10
2017-09-23T02:10:34.266Z,9.99
2017-09-23T02:11:44.541Z,10.02
2017-09-23T02:12:54.503Z,9.94
2017-09-23T02:14:04.458Z,9.94
2017-09-23T02:15:14.413Z,9.94
2017-09-23T02:16:24.687Z,10
2017-09-23T02:17:34.988Z,9.87
2017-09-23T02:18:44.620Z,9.9
2017-09-23T02:19:54.890Z,9.94
2017-09-23T02:21:04.844Z,9.88
2017-09-23T02:22:15.117Z,9.84
2017-09-23T02:23:25.391Z,9.92
2017-09-23T02:24:35.678Z,9.92
2017-09-23T02:25:45.626Z,9.87
2017-09-23T02:26:55.906Z,9.91
2017-09-23T02:28:06.178Z,9.82
2017-09-23T02:29:15.811Z,9.85
2017-09-23T02:30:26.085Z,9.91
2017-09-23T02:31:36.036Z,9.85
2017-09-23T02:32:45.677Z,9.94
2017-09-23T02:33:55.642Z,9.9
2017-09-23T02:35:05.603Z,9.9
2017-09-23T02:36:15.874Z,9.87
2017-09-23T02:37:25.827Z,9.91
2017-09-23T02:38:35.778Z,9.9
2017-09-23T02:39:45.734Z,9.91
2017-09-23T02:40:56.012Z,9.92
2017-09-23T02:42:06.300Z,9.9
2017-09-23T02:43:15.936Z,9.9
2017-09-23T02:44:25.887Z,9.91
2017-09-23T02:45:35.837Z,9.95
2017-09-23T02:46:46.119Z,9.9
2017-09-23T02:47:56.412Z,9.88
2017-09-23T02:49:06.370Z,9.92
2017-09-23T02:50:16.649Z,9.91
2017-09-23T02:51:26.923Z,9.91
2017-09-23T02:52:37.192Z,9.94
2017-09-23T02:53:47.480Z,9.88
2017-09-23T02:54:57.762Z,9.9
2017-09-23T02:56:07.719Z,9.91
2017-09-23T02:57:17.991Z,9.9
2017-09-23T02:58:28.263Z,9.9
2017-09-23T02:59:38.216Z,9.82
2017-09-23T03:00:48.169Z,9.9
2017-09-23T03:01:58.124Z,9.91
2017-09-23T03:03:08.410Z,9.92
2017-09-23T03:04:18.365Z,9.88
2017-09-23T03:05:28.639Z,9.92
2017-09-23T03:06:38.594Z,9.92
2017-09-23T03:07:48.544Z,9.88
2017-09-23T03:08:58.171Z,9.9
2017-09-23T03:10:08.444Z,9.91
2017-09-23T03:11:18.714Z,9.91
2017-09-23T03:12:28.996Z,9.87
2017-09-23T03:13:39.276Z,9.87
2017-09-23T03:14:49.553Z,9.88
2017-09-23T03:15:59.508Z,9.92
2017-09-23T03:17:09.779Z,9.91
2017-09-23T03:18:20.051Z,9.9
2017-09-23T03:19:30.001Z,9.88
2017-09-23T03:20:40.275Z,9.91
2017-09-23T03:21:50.551Z,9.88
2017-09-23T03:23:00.181Z,9.88
2017-09-23T03:24:10.456Z,9.84
2017-09-23T03:25:20.408Z,9.94
2017-09-23T03:26:30.360Z,9.9
2017-09-23T03:27:40.315Z,9.88
2017-09-23T03:28:49.964Z,9.91
2017-09-23T03:30:00.238Z,9.91
2017-09-23T03:31:10.204Z,9.97
2017-09-23T03:32:20.484Z,9.85
2017-09-23T03:33:30.763Z,9.85
2017-09-23T03:34:41.039Z,9.9
2017-09-23T03:35:50.988Z,9.92
2017-09-23T03:37:01.273Z,9.85
2017-09-23T03:38:11.223Z,9.87
2017-09-23T03:39:21.498Z,9.87
2017-09-23T03:40:31.776Z,9.84
2017-09-23T03:41:42.050Z,9.88
2017-09-23T03:42:52.340Z,9.87
2017-09-23T03:44:02.619Z,9.74
2017-09-23T03:45:12.253Z,9.84
2017-09-23T03:46:22.536Z,9.9
2017-09-23T03:47:31.843Z,9.87
2017-09-23T03:48:42.111Z,9.81
2017-09-23T03:49:52.072Z,9.85
2017-09-23T03:51:02.358Z,9.81
2017-09-23T03:52:12.314Z,9.85
2017-09-23T03:53:22.270Z,9.82
2017-09-23T03:54:32.550Z,9.9
2017-09-23T03:55:42.497Z,9.77
2017-09-23T03:56:52.814Z,9.84
2017-09-23T03:58:03.088Z,9.8
2017-09-23T03:59:12.721Z,9.87
2017-09-23T04:00:22.991Z,9.74
2017-09-23T04:01:32.631Z,9.84
2017-09-23T04:02:42.904Z,9.74
2017-09-23T04:03:52.892Z,9.77
2017-09-23T04:05:02.842Z,9.77
2017-09-23T04:06:13.123Z,9.77
2017-09-23T04:07:23.408Z,9.81
2017-09-23T04:08:33.690Z,9.8
2017-09-23T04:09:43.968Z,9.76
2017-09-23T04:10:53.922Z,9.76
2017-09-23T04:12:04.196Z,9.74
2017-09-23T04:13:14.144Z,9.81
2017-09-23T04:14:24.425Z,9.73
2017-09-23T04:15:34.709Z,9.76
2017-09-23T04:16:44.982Z,9.74
2017-09-23T04:17:55.254Z,9.81
2017-09-23T04:19:05.537Z,9.77
2017-09-23T04:20:15.808Z,9.73
2017-09-23T04:21:26.079Z,9.74
2017-09-23T04:22:36.350Z,9.7
2017-09-23T04:23:46.627Z,9.77
2017-09-23T04:24:56.261Z,9.74
2017-09-23T04:26:06.536Z,9.73
2017-09-23T04:27:16.487Z,9.76
2017-09-23T04:28:26.442Z,9.7
2017-09-23T04:29:36.388Z,9.7
2017-09-23T04:30:46.667Z,9.73
2017-09-23T04:31:56.944Z,9.72
2017-09-23T04:33:07.213Z,9.63
2017-09-23T04:34:17.487Z,9.64
2017-09-23T04:35:27.765Z,9.66
2017-09-23T04:36:38.287Z,9.64
2017-09-23T04:37:48.560Z,9.7
2017-09-23T04:38:58.830Z,9.69
2017-09-23T04:40:09.124Z,9.77
2017-09-23T04:41:19.405Z,9.72
2017-09-23T04:42:29.681Z,9.7
2017-09-23T04:43:39.963Z,9.69
2017-09-23T04:44:49.597Z,9.64
2017-09-23T04:45:59.551Z,9.73
2017-09-23T04:47:09.823Z,9.72
2017-09-23T04:48:19.454Z,9.77
2017-09-23T04:49:29.731Z,9.63
2017-09-23T04:50:39.685Z,9.63
2017-09-23T04:51:49.648Z,9.73
2017-09-23T04:52:59.598Z,9.63
2017-09-23T04:54:09.549Z,9.76
2017-09-23T04:55:19.821Z,9.8
2017-09-23T04:56:30.096Z,9.76
2017-09-23T04:57:40.369Z,9.63
2017-09-23T04:58:50.638Z,9.67
2017-09-23T05:00:00.584Z,9.64
2017-09-23T05:01:10.859Z,9.74
2017-09-23T05:02:20.820Z,9.7
2017-09-23T05:03:30.773Z,9.66
2017-09-23T05:04:41.052Z,9.73
2017-09-23T05:05:51.327Z,9.77
2017-09-23T05:07:01.605Z,9.64
2017-09-23T05:08:11.883Z,9.8
2017-09-23T05:09:22.155Z,9.72
2017-09-23T05:10:32.429Z,9.69
2017-09-23T05:11:42.702Z,9.67
2017-09-23T05:12:52.978Z,9.62
2017-09-23T05:14:02.933Z,9.69
2017-09-23T05:15:12.895Z,9.7
2017-09-23T05:16:22.852Z,9.73
2017-09-23T05:17:33.121Z,9.66
2017-09-23T05:18:43.398Z,9.66
2017-09-23T05:19:53.672Z,9.73
2017-09-23T05:21:03.945Z,9.69
2017-09-23T05:22:13.898Z,9.82
2017-09-23T05:23:24.174Z,9.67
2017-09-23T05:24:34.451Z,9.72
2017-09-23T05:25:44.411Z,9.76
2017-09-23T05:26:54.369Z,9.8
2017-09-23T05:28:04.321Z,9.84
2017-09-23T05:29:14.279Z,9.82
2017-09-23T05:30:24.546Z,9.76
2017-09-23T05:31:34.179Z,9.82
2017-09-23T05:32:44.450Z,9.76
2017-09-23T05:33:54.723Z,9.8
2017-09-23T05:35:05.039Z,9.81
2017-09-23T05:36:15.312Z,9.8
2017-09-23T05:37:25.591Z,9.77
2017-09-23T05:38:35.539Z,9.77
2017-09-23T05:39:45.822Z,9.8
2017-09-23T05:40:56.095Z,9.77
2017-09-23T05:42:05.724Z,9.81
2017-09-23T05:43:15.996Z,9.77
2017-09-23T05:44:25.628Z,9.76
2017-09-23T05:45:35.585Z,9.77
2017-09-23T05:46:45.867Z,9.77
2017-09-23T05:47:55.831Z,9.76
2017-09-23T05:49:06.110Z,9.74
2017-09-23T05:50:16.384Z,9.81
2017-09-23T05:51:26.659Z,9.82
2017-09-23T05:52:36.928Z,9.77
2017-09-23T05:53:47.203Z,9.8
2017-09-23T05:54:57.482Z,9.82
2017-09-23T05:56:07.761Z,9.85
2017-09-23T05:57:17.713Z,9.8
2017-09-23T05:58:27.986Z,9.77
2017-09-23T05:59:38.262Z,9.76
2017-09-23T06:00:48.543Z,9.81
2017-09-23T06:01:58.817Z,9.81
2017-09-23T06:03:09.092Z,9.81
2017-09-23T06:04:19.046Z,9.85
2017-09-23T06:05:29.001Z,9.76
2017-09-23T06:06:39.277Z,9.81
2017-09-23T06:07:49.230Z,9.73
2017-09-23T06:08:59.503Z,9.77
2017-09-23T06:10:09.456Z,9.77
2017-09-23T06:11:19.730Z,9.81
2017-09-23T06:12:29.679Z,9.76
2017-09-23T06:13:39.629Z,9.81
2017-09-23T06:14:49.578Z,9.82
2017-09-23T06:15:59.860Z,9.77
2017-09-23T06:17:09.810Z,9.77
2017-09-23T06:18:20.086Z,9.84
2017-09-23T06:19:30.364Z,9.77
2017-09-23T06:20:40.639Z,9.82
2017-09-23T06:21:50.914Z,9.81
2017-09-23T06:23:01.190Z,9.8
2017-09-23T06:24:11.468Z,9.77
2017-09-23T06:25:21.754Z,9.8
2017-09-23T06:26:32.026Z,9.76
2017-09-23T06:27:41.657Z,9.73
2017-09-23T06:28:51.931Z,9.85
2017-09-23T06:30:01.564Z,9.84
2017-09-23T06:31:11.837Z,9.77
2017-09-23T06:32:22.118Z,9.85
2017-09-23T06:33:32.068Z,9.77
2017-09-23T06:34:41.698Z,9.77
2017-09-23T06:35:51.978Z,9.74
2017-09-23T06:37:01.609Z,9.82
2017-09-23T06:38:11.563Z,9.73
2017-09-23T06:39:21.837Z,9.84
2017-09-23T06:40:32.108Z,9.77
2017-09-23T06:41:42.059Z,9.81
2017-09-23T06:42:52.332Z,9.77
2017-09-23T06:44:02.286Z,9.85
2017-09-23T06:45:12.564Z,9.74
2017-09-23T06:46:22.517Z,9.77
2017-09-23T06:47:32.148Z,9.8
2017-09-23T06:48:42.420Z,9.77
2017-09-23T06:49:52.700Z,9.84
2017-09-23T06:51:02.975Z,9.81
2017-09-23T06:52:12.606Z,9.84
2017-09-23T06:53:22.887Z,9.76
2017-09-23T06:54:32.835Z,9.85
2017-09-23T06:55:42.788Z,9.8
2017-09-23T06:56:54.844Z,9.9
2017-09-23T06:58:05.116Z,9.85
2017-09-23T06:59:15.391Z,9.82
2017-09-23T07:00:25.346Z,9.95
2017-09-23T07:01:35.652Z,9.91
2017-09-23T07:02:45.926Z,9.9
2017-09-23T07:03:55.874Z,9.92
2017-09-23T07:05:05.822Z,9.91
2017-09-23T07:06:16.098Z,9.92
2017-09-23T07:07:26.380Z,9.92
2017-09-23T07:08:36.334Z,9.95
2017-09-23T07:09:46.290Z,9.94
2017-09-23T07:10:56.241Z,9.91
2017-09-23T07:12:05.870Z,9.95
2017-09-23T07:13:16.144Z,10
2017-09-23T07:14:25.772Z,9.94
2017-09-23T07:15:36.052Z,9.95
2017-09-23T07:16:46.329Z,9.94
2017-09-23T07:17:56.284Z,9.95
2017-09-23T07:19:05.913Z,9.94
2017-09-23T07:20:15.864Z,9.94
2017-09-23T07:21:26.139Z,9.99
2017-09-23T07:22:36.416Z,9.94
2017-09-23T07:23:46.696Z,9.95
2017-09-23T07:24:56.969Z,9.9
2017-09-23T07:26:06.598Z,9.88
2017-09-23T07:27:16.877Z,9.91
2017-09-23T07:28:27.149Z,9.85
2017-09-23T07:29:37.101Z,10.02
2017-09-23T07:30:47.056Z,9.99
2017-09-23T07:31:57.332Z,9.95
2017-09-23T07:33:06.957Z,9.99
2017-09-23T07:34:16.919Z,9.97
2017-09-23T07:35:26.872Z,9.94
2017-09-23T07:36:36.498Z,9.94
2017-09-23T07:37:46.454Z,10
2017-09-23T07:38:56.728Z,9.91
2017-09-23T07:40:06.364Z,9.99
2017-09-23T07:41:16.318Z,9.9
2017-09-23T07:42:26.588Z,9.97
2017-09-23T07:43:36.862Z,10.02
2017-09-23T07:44:47.139Z,9.94
2017-09-23T07:45:57.412Z,9.87
2017-09-23T07:47:07.373Z,9.88
2017-09-23T07:48:17.327Z,9.94
2017-09-23T07:49:27.280Z,9.95
2017-09-23T07:50:37.551Z,9.99
2017-09-23T07:51:47.501Z,9.85
2017-09-23T07:52:57.139Z,9.85
2017-09-23T07:54:07.093Z,9.88
2017-09-23T07:55:17.364Z,9.92
2017-09-23T07:56:27.639Z,9.95
2017-09-23T07:57:37.586Z,9.99
2017-09-23T07:58:47.540Z,9.94
2017-09-23T07:59:57.821Z,9.99
2017-09-23T08:01:07.771Z,10.06
2017-09-23T08:02:18.054Z,9.95
2017-09-23T08:03:28.332Z,10.05
2017-09-23T08:04:38.282Z,9.99
2017-09-23T08:05:48.564Z,10.03
2017-09-23T08:06:58.841Z,9.97
2017-09-23T08:08:08.470Z,9.99
2017-09-23T08:09:18.743Z,10.05
2017-09-23T08:10:29.032Z,9.91
2017-09-23T08:11:38.990Z,9.99
2017-09-23T08:12:49.261Z,10.07
2017-09-23T08:13:59.539Z,10.05
2017-09-23T08:15:09.493Z,10.05
2017-09-23T08:16:19.446Z,10.05
2017-09-23T08:17:29.722Z,10.07
2017-09-23T08:18:39.027Z,10.07
2017-09-23T08:19:48.663Z,10.07
2017-09-23T08:20:58.617Z,10.06
2017-09-23T08:22:08.570Z,10.15
2017-09-23T08:23:18.852Z,10.12
2017-09-23T08:24:29.129Z,10.1
2017-09-23T08:25:39.401Z,10.13
2017-09-23T08:26:49.028Z,10.15
2017-09-23T08:27:58.663Z,10.1
2017-09-23T08:29:08.617Z,10.23
2017-09-23T08:30:18.568Z,10.17
2017-09-23T08:31:28.525Z,10.13
2017-09-23T08:32:38.473Z,10.18
2017-09-23T08:33:48.454Z,10.2
2017-09-23T08:34:58.416Z,10.15
2017-09-23T08:36:08.376Z,10.2
2017-09-23T08:37:18.648Z,10.12
2017-09-23T08:38:28.604Z,10.15
2017-09-23T08:39:38.889Z,10.24
2017-09-23T08:40:48.840Z,10.27
2017-09-23T08:41:59.147Z,10.23
2017-09-23T08:43:09.424Z,10.21
2017-09-23T08:44:19.704Z,10.23
2017-09-23T08:45:29.976Z,10.3
2017-09-23T08:46:40.243Z,10.3
2017-09-23T08:47:50.196Z,10.38
2017-09-23T08:49:00.470Z,10.27
2017-09-23T08:50:10.428Z,10.28
2017-09-23T08:51:20.704Z,10.34
2017-09-23T08:52:30.660Z,10.34
2017-09-23T08:53:40.947Z,10.33
2017-09-23T08:54:51.224Z,10.36
2017-09-23T08:56:01.503Z,10.36
2017-09-23T08:57:11.132Z,10.34
2017-09-23T08:58:21.404Z,10.42
2017-09-23T08:59:31.040Z,10.38
2017-09-23T09:00:40.996Z,10.36
2017-09-23T09:01:51.283Z,10.46
2017-09-23T09:03:01.558Z,10.42
2017-09-23T09:04:11.841Z,10.43
2017-09-23T09:05:21.796Z,10.48
2017-09-23T09:06:31.747Z,10.48
2017-09-23T09:07:42.026Z,10.43
2017-09-23T09:08:52.301Z,10.55
2017-09-23T09:10:01.932Z,10.55
2017-09-23T09:11:11.881Z,10.49
2017-09-23T09:12:22.190Z,10.53
2017-09-23T09:13:32.142Z,10.59
2017-09-23T09:14:42.412Z,10.51
2017-09-23T09:15:52.699Z,10.59
2017-09-23T09:17:02.973Z,10.65
2017-09-23T09:18:12.929Z,10.57
2017-09-23T09:19:23.209Z,10.59
2017-09-23T09:20:33.491Z,10.62
2017-09-23T09:21:43.771Z,10.76
2017-09-23T09:22:53.405Z,10.67
2017-09-23T09:24:03.362Z,10.69
2017-09-23T09:25:13.639Z,10.68
2017-09-23T09:26:23.590Z,10.77
2017-09-23T09:27:33.542Z,10.75
2017-09-23T09:28:43.530Z,10.76
2017-09-23T09:29:53.165Z,10.8
2017-09-23T09:31:03.116Z,10.77
2017-09-23T09:32:13.071Z,10.71
2017-09-23T09:33:23.347Z,10.75
2017-09-23T09:34:33.622Z,10.69
2017-09-23T09:35:43.584Z,10.86
2017-09-23T09:36:53.537Z,10.77
2017-09-23T09:38:03.812Z,10.8
2017-09-23T09:39:13.119Z,10.84
2017-09-23T09:40:23.396Z,10.92
2017-09-23T09:41:33.025Z,10.83
2017-09-23T09:42:42.978Z,10.83
2017-09-23T09:43:52.935Z,10.89
2017-09-23T09:45:03.209Z,10.9
2017-09-23T09:46:13.485Z,10.9
2017-09-23T09:47:23.776Z,10.98
2017-09-23T09:48:33.407Z,10.97
2017-09-23T09:49:43.361Z,11.01
2017-09-23T09:50:53.322Z,11.02
2017-09-23T09:52:03.601Z,11.08
2017-09-23T09:53:13.564Z,11.04
2017-09-23T09:54:23.850Z,11.12
2017-09-23T09:55:33.160Z,11.13
2017-09-23T09:56:43.121Z,11.15
2017-09-23T09:57:53.073Z,11.19
2017-09-23T09:59:02.390Z,11.3
2017-09-23T10:00:12.019Z,11.31
2017-09-23T10:01:22.289Z,11.31
2017-09-23T10:02:32.566Z,11.38
2017-09-23T10:03:42.200Z,11.4
2017-09-23T10:04:52.478Z,11.44
2017-09-23T10:06:02.436Z,11.45
2017-09-23T10:07:12.393Z,11.41
2017-09-23T10:08:22.348Z,11.38
2017-09-23T10:09:32.624Z,11.35
2017-09-23T10:10:42.897Z,11.3
2017-09-23T10:11:52.882Z,11.31
2017-09-23T10:13:02.833Z,11.45
2017-09-23T10:14:12.788Z,11.31
2017-09-23T10:15:23.065Z,11.31
2017-09-23T10:16:33.021Z,11.18
2017-09-23T10:17:43.299Z,11.19
2017-09-23T10:18:53.574Z,11.26
2017-09-23T10:20:03.204Z,11.23
2017-09-23T10:21:12.838Z,11.2
2017-09-23T10:22:22.793Z,11.31
2017-09-23T10:23:33.071Z,11.27
2017-09-23T10:24:43.346Z,11.27
2017-09-23T10:25:52.983Z,11.27
2017-09-23T10:27:02.946Z,11.3
2017-09-23T10:28:13.217Z,11.31
2017-09-23T10:29:22.849Z,11.31
2017-09-23T10:30:33.131Z,11.41
2017-09-23T10:31:43.092Z,11.43
2017-09-23T10:32:52.725Z,11.44
2017-09-23T10:34:03.006Z,11.4
2017-09-23T10:35:12.314Z,11.44
2017-09-23T10:36:21.945Z,11.44
2017-09-23T10:37:32.220Z,11.3
2017-09-23T10:38:42.176Z,11.33
2017-09-23T10:39:52.135Z,11.3
2017-09-23T10:41:02.084Z,11.2
2017-09-23T10:42:11.723Z,11.2
2017-09-23T10:43:21.996Z,11.19
2017-09-23T10:44:31.947Z,11.27
2017-09-23T10:45:41.906Z,11.19
2017-09-23T10:46:51.865Z,11.26
2017-09-23T10:48:02.143Z,11.34
2017-09-23T10:49:12.093Z,11.45
2017-09-23T10:50:22.534Z,11.44
2017-09-23T10:51:32.806Z,11.52
2017-09-23T10:52:43.086Z,11.56
2017-09-23T10:53:53.369Z,11.53
2017-09-23T10:55:03.320Z,11.41
2017-09-23T10:56:13.272Z,11.51
2017-09-23T10:57:23.233Z,11.53
2017-09-23T10:58:33.511Z,11.49
2017-09-23T10:59:43.791Z,11.51
2017-09-23T11:00:54.078Z,11.48
2017-09-23T11:02:04.034Z,11.48
2017-09-23T11:03:13.344Z,11.48
2017-09-23T11:04:22.977Z,11.51
2017-09-23T11:05:33.254Z,11.55
2017-09-23T11:06:43.532Z,11.68
2017-09-23T11:07:53.166Z,11.65
2017-09-23T11:09:03.123Z,11.77
2017-09-23T11:10:12.755Z,11.81
2017-09-23T11:11:23.041Z,11.91
2017-09-23T11:12:33.327Z,11.96
2017-09-23T11:13:43.605Z,12.12
2017-09-23T11:14:53.245Z,12.15
2017-09-23T11:16:03.198Z,12.23
2017-09-23T11:17:13.165Z,12.17
2017-09-23T11:18:23.123Z,12.2
2017-09-23T11:19:33.430Z,12.36
2017-09-23T11:20:43.715Z,12.4
2017-09-23T11:21:53.346Z,12.44
2017-09-23T11:23:03.302Z,12.5
2017-09-23T11:24:13.588Z,12.44
2017-09-23T11:25:23.219Z,12.44
2017-09-23T11:26:33.178Z,12.36
2017-09-23T11:27:43.132Z,12.29
2017-09-23T11:28:53.100Z,12.39
2017-09-23T11:30:03.058Z,12.37
2017-09-23T11:31:13.338Z,12.37
2017-09-23T11:32:23.614Z,12.4
2017-09-23T11:33:33.572Z,12.4
2017-09-23T11:34:43.526Z,12.3
2017-09-23T11:35:53.805Z,12.26
2017-09-23T11:37:04.086Z,12.39
2017-09-23T11:38:14.401Z,12.43
2017-09-23T11:39:24.031Z,12.48
2017-09-23T11:40:33.980Z,12.53
2017-09-23T11:41:44.264Z,12.68
2017-09-23T11:42:54.223Z,12.8
2017-09-23T11:44:04.173Z,12.83
2017-09-23T11:45:14.127Z,12.83
2017-09-23T11:46:24.085Z,12.7
2017-09-23T11:47:34.363Z,12.73
2017-09-23T11:48:44.317Z,12.87
2017-09-23T11:49:54.596Z,12.86
2017-09-23T11:51:04.871Z,12.94
2017-09-23T11:52:14.828Z,12.98
2017-09-23T11:53:25.099Z,13.09
2017-09-23T11:54:34.734Z,13.08
2017-09-23T11:55:44.369Z,13.09
2017-09-23T11:56:54.644Z,13.12
2017-09-23T11:58:04.626Z,13.21
2017-09-23T11:59:14.261Z,13.19
2017-09-23T12:00:24.537Z,13.26
2017-09-23T12:01:34.169Z,13.16
2017-09-23T12:02:43.803Z,13.05
2017-09-23T12:03:53.756Z,13.02
2017-09-23T12:05:04.034Z,13.09
2017-09-23T12:06:13.988Z,13.13
2017-09-23T12:07:23.946Z,13.08
2017-09-23T12:08:34.220Z,12.87
2017-09-23T12:09:44.179Z,12.87
2017-09-23T12:10:54.454Z,12.87
2017-09-23T12:12:04.727Z,12.88
2017-09-23T12:13:15.011Z,12.9
2017-09-23T12:14:24.971Z,12.86
2017-09-23T12:15:34.604Z,12.98
2017-09-23T12:16:44.575Z,12.99
2017-09-23T12:17:54.536Z,13.09
2017-09-23T12:19:04.496Z,13.08
2017-09-23T12:20:14.777Z,13.01
2017-09-23T12:21:24.734Z,13.03
2017-09-23T12:22:34.689Z,13.09
2017-09-23T12:23:44.642Z,13.08
2017-09-23T12:24:54.922Z,12.95
2017-09-23T12:26:04.552Z,12.88
2017-09-23T12:27:14.835Z,12.9
2017-09-23T12:28:25.111Z,12.93
2017-09-23T12:29:35.068Z,12.98
2017-09-23T12:30:45.028Z,13.02
2017-09-23T12:31:55.315Z,12.98
2017-09-23T12:33:05.274Z,12.93
2017-09-23T12:34:15.585Z,12.94
2017-09-23T12:35:25.538Z,12.99
2017-09-23T12:36:35.814Z,12.95
2017-09-23T12:37:46.094Z,12.98
2017-09-23T12:38:56.367Z,12.88
2017-09-23T12:40:06.651Z,12.72
2017-09-23T12:41:16.638Z,12.62
2017-09-23T12:42:26.916Z,12.58
2017-09-23T12:43:37.196Z,12.65
2017-09-23T12:44:46.509Z,12.53
2017-09-23T12:45:56.473Z,12.48
2017-09-23T12:47:06.115Z,12.47
2017-09-23T12:48:16.391Z,12.4
2017-09-23T12:49:26.382Z,12.39
2017-09-23T12:50:36.333Z,12.36
2017-09-23T12:51:46.034Z,12.39
2017-09-23T12:52:56.312Z,12.3
2017-09-23T12:54:06.274Z,12.26
2017-09-23T12:55:15.911Z,12.29
2017-09-23T12:56:25.873Z,12.26
2017-09-23T12:57:36.153Z,12.25
2017-09-23T12:58:46.106Z,12.28
2017-09-23T12:59:55.417Z,12.25
2017-09-23T13:01:05.374Z,12.26
2017-09-23T13:02:15.655Z,12.32
2017-09-23T13:03:25.940Z,12.29
2017-09-23T13:04:35.895Z,12.3
2017-09-23T13:05:46.182Z,12.32
2017-09-23T13:06:56.137Z,12.36
2017-09-23T13:08:06.092Z,12.35
2017-09-23T13:09:16.379Z,12.36
2017-09-23T13:10:26.348Z,12.33
2017-09-23T13:11:36.622Z,12.39
2017-09-23T13:12:46.584Z,12.37
2017-09-23T13:13:56.861Z,12.35
2017-09-23T13:15:06.826Z,12.36
2017-09-23T13:16:16.784Z,12.28
2017-09-23T13:17:26.417Z,12.33
2017-09-23T13:18:36.051Z,12.37
2017-09-23T13:19:45.682Z,12.35
2017-09-23T13:20:55.962Z,12.4
2017-09-23T13:22:05.920Z,12.44
2017-09-23T13:23:16.209Z,12.47
2017-09-23T13:24:25.839Z,12.44
2017-09-23T13:25:35.805Z,12.44
2017-09-23T13:26:45.760Z,12.39
2017-09-23T13:27:56.036Z,12.47
2017-09-23T13:29:06.311Z,12.5
2017-09-23T13:30:16.269Z,12.51
2017-09-23T13:31:26.223Z,12.5
2017-09-23T13:32:36.505Z,12.65
2017-09-23T13:33:46.470Z,12.66
2017-09-23T13:34:56.746Z,12.69
2017-09-23T13:36:06.700Z,12.68
2017-09-23T13:37:16.984Z,12.66
2017-09-23T13:38:26.941Z,12.81
2017-09-23T13:39:37.149Z,12.78
2017-09-23T13:40:47.432Z,12.75
2017-09-23T13:41:57.712Z,12.9
2017-09-23T13:43:07.345Z,12.95
2017-09-23T13:44:17.299Z,12.99
2017-09-23T13:45:27.579Z,13.01
2017-09-23T13:46:37.860Z,13.08
2017-09-23T13:47:47.826Z,13.08
2017-09-23T13:48:58.105Z,13.16
2017-09-23T13:50:08.393Z,13.13
2017-09-23T13:51:18.675Z,13.13
2017-09-23T13:52:28.954Z,13.2
2017-09-23T13:53:39.227Z,13.21
2017-09-23T13:54:49.509Z,13.17
2017-09-23T13:55:59.786Z,13.24
2017-09-23T13:57:10.064Z,13.28
2017-09-23T13:58:20.032Z,13.23
2017-09-23T13:59:29.989Z,13.19
2017-09-23T14:00:40.274Z,13.3
2017-09-23T14:01:50.232Z,13.31
2017-09-23T14:03:00.514Z,13.28
2017-09-23T14:04:10.471Z,13.26
2017-09-23T14:05:20.431Z,13.27
2017-09-23T14:06:30.395Z,13.31
2017-09-23T14:07:40.355Z,13.3
2017-09-23T14:08:50.313Z,13.4
2017-09-23T14:10:00.593Z,13.36
2017-09-23T14:11:10.873Z,13.37
2017-09-23T14:12:20.186Z,13.5
2017-09-23T14:13:29.824Z,13.39
2017-09-23T14:14:41.973Z,13.4
2017-09-23T14:15:52.245Z,13.47
2017-09-23T14:17:01.879Z,13.39
2017-09-23T14:18:11.838Z,13.42
2017-09-23T14:19:22.125Z,13.39
2017-09-23T14:20:31.763Z,13.4
2017-09-23T14:21:42.040Z,13.27
2017-09-23T14:22:52.315Z,13.36
2017-09-23T14:24:02.273Z,13.24
2017-09-23T14:25:11.911Z,13.19
2017-09-23T14:26:22.185Z,13.13
2017-09-23T14:27:32.465Z,13.09
2017-09-23T14:28:42.740Z,12.94
2017-09-23T14:29:53.019Z,12.98
2017-09-23T14:31:02.655Z,12.88
2017-09-23T14:32:12.935Z,12.9
2017-09-23T14:33:22.894Z,12.88
2017-09-23T14:34:32.852Z,12.91
2017-09-23T14:35:43.130Z,12.88
2017-09-23T14:36:52.761Z,12.91
2017-09-23T14:38:03.034Z,12.91
2017-09-23T14:39:12.665Z,12.88
2017-09-23T14:40:22.942Z,12.98
2017-09-23T14:41:32.901Z,13.06
2017-09-23T14:42:43.178Z,12.95
2017-09-23T14:43:53.451Z,12.99
2017-09-23T14:45:03.413Z,12.94
2017-09-23T14:46:13.043Z,12.95
2017-09-23T14:47:23.362Z,12.9
2017-09-23T14:48:32.992Z,12.99
2017-09-23T14:49:43.300Z,12.91
2017-09-23T14:50:53.259Z,12.87
2017-09-23T14:52:03.221Z,12.9
2017-09-23T14:53:13.497Z,12.84
2017-09-23T14:54:23.449Z,12.88
2017-09-23T14:55:33.736Z,12.94
2017-09-23T14:56:43.699Z,12.8
2017-09-23T14:57:53.970Z,12.78
2017-09-23T14:59:04.252Z,12.81
2017-09-23T15:00:14.538Z,12.63
2017-09-23T15:01:24.821Z,12.65
2017-09-23T15:02:34.128Z,12.63
2017-09-23T15:03:44.088Z,12.83
2017-09-23T15:04:54.376Z,12.7
2017-09-23T15:06:04.333Z,12.8
2017-09-23T15:07:14.619Z,12.7
2017-09-23T15:08:24.894Z,12.68
2017-09-23T15:09:35.175Z,12.7
2017-09-23T15:10:45.456Z,12.73
2017-09-23T15:11:55.416Z,12.7
2017-09-23T15:13:05.052Z,12.66
2017-09-23T15:14:15.331Z,12.66
2017-09-23T15:15:25.344Z,12.61
2017-09-23T15:16:34.981Z,12.65
2017-09-23T15:17:44.941Z,12.66
2017-09-23T15:18:55.221Z,12.57
2017-09-23T15:20:04.856Z,12.55